Time;durP1;ratioP1;P1;durP2;ratioP2;P2;SDS_P1;SDS_P2;PMS_P1;PMS_P2;Temp;Humidity;BMP_temperature;BMP_pressure;BME280_temperature;BME280_humidity;BME280_pressure;Samples;Min_cycle;Max_cycle;Signal;HPM_P1;HPM_P2
2022/09/12 00:02:23;;;;;;;9.60;8.52;;;;;;;;;;5031473;28;20112;-70
2022/09/12 00:04:49;;;;;;;9.68;7.13;;;;;;;;;;5029594;28;20045;-70
2022/09/12 00:07:15;;;;;;;13.38;12.00;;;;;;;;;;5039710;28;20041;-70
2022/09/12 00:09:41;;;;;;;19.00;16.95;;;;;;;;;;5037836;28;20057;-71
2022/09/12 00:12:07;;;;;;;18.42;15.85;;;;;;;;;;5038642;28;20051;-71
2022/09/12 00:14:34;;;;;;;17.02;15.23;;;;;;;;;;5033122;28;20084;-71
2022/09/12 00:17:00;;;;;;;20.17;16.10;;;;;;;;;;5028523;28;20052;-70
2022/09/12 00:19:27;;;;;;;18.23;16.30;;;;;;;;;;5039940;28;20053;-70
2022/09/12 00:21:54;;;;;;;16.17;14.55;;;;;;;;;;5037931;28;20103;-70
2022/09/12 00:24:20;;;;;;;21.15;18.17;;;;;;;;;;5035581;28;20527;-71
2022/09/12 00:26:47;;;;;;;20.48;17.83;;;;;;;;;;5029721;28;20041;-70
2022/09/12 00:29:15;;;;;;;20.73;18.52;;;;;;;;;;5030950;28;20103;-71
2022/09/12 00:31:42;;;;;;;20.02;17.75;;;;;;;;;;5036814;28;20037;-71
2022/09/12 00:34:08;;;;;;;18.77;16.40;;;;;;;;;;5033714;28;20052;-70
2022/09/12 00:36:35;;;;;;;20.77;17.15;;;;;;;;;;5037784;28;20072;-70
2022/09/12 00:39:02;;;;;;;16.27;14.57;;;;;;;;;;5040450;28;20045;-71
2022/09/12 00:41:30;;;;;;;14.02;12.05;;;;;;;;;;5042078;28;20187;-70
2022/09/12 00:43:58;;;;;;;22.48;9.82;;;;;;;;;;5034100;28;20045;-70
2022/09/12 00:46:29;;;;;;;16.75;13.25;;;;;;;;;;5037841;28;20048;-71
2022/09/12 00:48:58;;;;;;;15.45;13.57;;;;;;;;;;5043184;28;20040;-70
2022/09/12 00:51:25;;;;;;;11.23;10.07;;;;;;;;;;5044131;28;20044;-70
2022/09/12 00:53:52;;;;;;;14.82;12.95;;;;;;;;;;5039288;28;20202;-71
2022/09/12 00:56:18;;;;;;;9.90;8.90;;;;;;;;;;5031132;28;20053;-71
2022/09/12 00:58:48;;;;;;;14.40;12.88;;;;;;;;;;5044584;28;20036;-71
2022/09/12 01:01:14;;;;;;;13.68;12.25;;;;;;;;;;5038383;28;20127;-70
2022/09/12 01:03:40;;;;;;;14.18;12.68;;;;;;;;;;5032453;28;20048;-70
2022/09/12 01:06:10;;;;;;;17.38;15.70;;;;;;;;;;5041156;28;21340;-70
2022/09/12 01:08:36;;;;;;;18.20;14.20;;;;;;;;;;5039896;28;21598;-70
2022/09/12 01:11:03;;;;;;;15.93;14.05;;;;;;;;;;5043642;28;20365;-71
2022/09/12 01:13:30;;;;;;;15.50;13.90;;;;;;;;;;5034381;28;20131;-70
2022/09/12 01:15:56;;;;;;;14.30;12.80;;;;;;;;;;5038093;28;20048;-71
2022/09/12 01:18:39;;;;;;;18.60;14.80;;;;;;;;;;5038098;28;20041;-70
2022/09/12 01:21:06;;;;;;;13.70;12.30;;;;;;;;;;5038365;28;20098;-71
2022/09/12 01:23:56;;;;;;;13.70;12.00;;;;;;;;;;5033470;28;20041;-71
2022/09/12 01:26:32;;;;;;;15.20;12.52;;;;;;;;;;5037441;28;20059;-70
2022/09/12 01:28:58;;;;;;;15.00;13.35;;;;;;;;;;5034939;28;20780;-71
2022/09/12 01:31:29;;;;;;;17.85;14.95;;;;;;;;;;5041034;28;20041;-70
2022/09/12 01:34:04;;;;;;;17.25;15.45;;;;;;;;;;5039991;28;20120;-71
2022/09/12 01:36:34;;;;;;;17.27;15.57;;;;;;;;;;5058292;28;20056;-70
2022/09/12 01:39:03;;;;;;;16.92;15.23;;;;;;;;;;5040981;28;20039;-70
2022/09/12 01:41:38;;;;;;;18.40;14.25;;;;;;;;;;5040049;28;20064;-70
2022/09/12 01:44:09;;;;;;;13.63;11.52;;;;;;;;;;5040829;28;20045;-70
2022/09/12 01:46:42;;;;;;;11.98;10.40;;;;;;;;;;5039015;28;20049;-70
2022/09/12 01:49:14;;;;;;;11.63;10.37;;;;;;;;;;5035395;28;20045;-70
2022/09/12 01:51:44;;;;;;;9.35;8.35;;;;;;;;;;5046328;28;20098;-70
2022/09/12 01:54:15;;;;;;;10.32;9.23;;;;;;;;;;5045045;28;20048;-70
2022/09/12 01:56:42;;;;;;;12.93;10.90;;;;;;;;;;5052400;28;20055;-70
2022/09/12 01:59:12;;;;;;;14.25;12.27;;;;;;;;;;5050725;28;20036;-70
2022/09/12 02:01:41;;;;;;;15.82;12.88;;;;;;;;;;5040028;28;20669;-70
2022/09/12 02:04:13;;;;;;;17.27;14.30;;;;;;;;;;5065934;28;20041;-70
2022/09/12 02:06:50;;;;;;;13.90;12.50;;;;;;;;;;5041591;28;20068;-70
2022/09/12 02:09:22;;;;;;;15.43;13.00;;;;;;;;;;5041570;28;20053;-70
2022/09/12 02:11:50;;;;;;;18.00;16.10;;;;;;;;;;5034798;28;20137;-70
2022/09/12 02:14:21;;;;;;;18.30;16.35;;;;;;;;;;5037720;28;20083;-71
2022/09/12 02:16:56;;;;;;;19.25;17.20;;;;;;;;;;5036544;28;20132;-70
2022/09/12 02:19:24;;;;;;;17.73;15.38;;;;;;;;;;5036329;28;20045;-70
2022/09/12 02:21:53;;;;;;;15.63;13.38;;;;;;;;;;5038996;28;20047;-70
2022/09/12 02:24:20;;;;;;;16.50;14.30;;;;;;;;;;5041753;28;20555;-70
2022/09/12 02:26:49;;;;;;;15.88;13.27;;;;;;;;;;5041356;28;20032;-70
2022/09/12 02:29:15;;;;;;;17.33;13.20;;;;;;;;;;5039587;28;20052;-70
2022/09/12 02:31:42;;;;;;;13.85;12.32;;;;;;;;;;5036475;28;20056;-70
2022/09/12 02:34:10;;;;;;;13.82;12.13;;;;;;;;;;5033934;28;20028;-71
2022/09/12 02:36:43;;;;;;;15.85;12.10;;;;;;;;;;5040038;28;20041;-71
2022/09/12 02:39:09;;;;;;;11.43;8.25;;;;;;;;;;5040738;28;20140;-70
2022/09/12 02:41:35;;;;;;;10.02;8.88;;;;;;;;;;5038968;28;20076;-70
2022/09/12 02:44:02;;;;;;;11.10;9.82;;;;;;;;;;5037828;28;20114;-71
2022/09/12 02:46:37;;;;;;;11.05;9.18;;;;;;;;;;5035363;28;20088;-70
2022/09/12 02:49:03;;;;;;;14.40;12.90;;;;;;;;;;5045388;28;20065;-70
2022/09/12 02:51:29;;;;;;;20.15;15.63;;;;;;;;;;5038638;28;20041;-70
2022/09/12 02:53:56;;;;;;;16.58;14.80;;;;;;;;;;5040563;28;20122;-70
2022/09/12 02:56:26;;;;;;;17.52;14.70;;;;;;;;;;5035067;28;20045;-70
2022/09/12 02:58:53;;;;;;;16.67;13.52;;;;;;;;;;5031757;28;20053;-72
2022/09/12 03:01:42;;;;;;;16.35;12.65;;;;;;;;;;5037312;28;20895;-70
2022/09/12 03:04:25;;;;;;;15.23;13.63;;;;;;;;;;5030834;28;20373;-70
2022/09/12 03:06:52;;;;;;;18.77;13.05;;;;;;;;;;5027613;28;20036;-70
2022/09/12 03:09:21;;;;;;;14.73;12.23;;;;;;;;;;5040192;28;20045;-70
2022/09/12 03:12:00;;;;;;;19.38;12.70;;;;;;;;;;5039250;28;20045;-70
2022/09/12 03:14:42;;;;;;;84.13;12.82;;;;;;;;;;5040892;28;20175;-70
2022/09/12 03:17:08;;;;;;;101.13;13.52;;;;;;;;;;5045923;28;20065;-70
2022/09/12 03:19:40;;;;;;;75.63;12.00;;;;;;;;;;5037216;28;20186;-70
2022/09/12 03:22:18;;;;;;;13.32;11.07;;;;;;;;;;5041924;28;20111;-70
2022/09/12 03:24:47;;;;;;;14.38;12.30;;;;;;;;;;5049461;28;20508;-70
2022/09/12 03:27:20;;;;;;;14.80;12.48;;;;;;;;;;5037389;28;20052;-70
2022/09/12 03:29:47;;;;;;;11.45;9.13;;;;;;;;;;5043901;28;20056;-70
2022/09/12 03:32:13;;;;;;;13.73;11.23;;;;;;;;;;5046540;28;20049;-70
2022/09/12 03:34:40;;;;;;;27.08;20.40;;;;;;;;;;5039854;28;20060;-70
2022/09/12 03:37:06;;;;;;;24.55;20.60;;;;;;;;;;5045130;28;20048;-70
2022/09/12 03:39:32;;;;;;;28.52;21.38;;;;;;;;;;5037362;28;20040;-70
2022/09/12 03:41:58;;;;;;;26.27;21.00;;;;;;;;;;5040892;28;20059;-70
2022/09/12 03:44:24;;;;;;;24.73;20.25;;;;;;;;;;5042940;28;20572;-70
2022/09/12 03:46:50;;;;;;;27.70;20.92;;;;;;;;;;5043409;28;20041;-70
2022/09/12 03:49:16;;;;;;;24.63;20.52;;;;;;;;;;5042565;28;20033;-69
2022/09/12 03:51:43;;;;;;;26.98;22.95;;;;;;;;;;5041823;28;20487;-70
2022/09/12 03:54:09;;;;;;;28.50;23.25;;;;;;;;;;5044344;28;20037;-70
2022/09/12 03:56:35;;;;;;;30.45;24.27;;;;;;;;;;5038238;28;20049;-70
2022/09/12 03:59:05;;;;;;;29.10;24.98;;;;;;;;;;5035363;28;20117;-70
2022/09/12 04:01:31;;;;;;;29.98;24.25;;;;;;;;;;5036137;28;20075;-70
2022/09/12 04:03:57;;;;;;;32.08;26.35;;;;;;;;;;5028364;28;20081;-70
2022/09/12 04:06:23;;;;;;;30.60;24.95;;;;;;;;;;5050639;28;20075;-70
2022/09/12 04:08:51;;;;;;;36.80;25.45;;;;;;;;;;5040987;28;20036;-70
2022/09/12 04:11:18;;;;;;;38.15;28.83;;;;;;;;;;5034349;28;20067;-71
2022/09/12 04:13:45;;;;;;;38.40;28.73;;;;;;;;;;5043029;28;20046;-70
2022/09/12 04:16:12;;;;;;;41.03;30.90;;;;;;;;;;5034690;28;20045;-70
2022/09/12 04:18:38;;;;;;;37.30;29.73;;;;;;;;;;5034157;28;20040;-70
2022/09/12 04:21:05;;;;;;;41.53;30.25;;;;;;;;;;5039563;28;20056;-70
2022/09/12 04:23:32;;;;;;;41.03;29.23;;;;;;;;;;5037629;28;20050;-70
2022/09/12 04:25:59;;;;;;;39.40;30.60;;;;;;;;;;5037456;28;20370;-70
2022/09/12 04:28:27;;;;;;;39.15;30.38;;;;;;;;;;5040046;28;20062;-70
2022/09/12 04:30:54;;;;;;;41.88;31.70;;;;;;;;;;5038463;28;20083;-70
2022/09/12 04:33:20;;;;;;;36.65;29.70;;;;;;;;;;5035115;28;20032;-70
2022/09/12 04:35:47;;;;;;;44.28;30.92;;;;;;;;;;5035404;28;20046;-70
2022/09/12 04:38:13;;;;;;;35.97;29.77;;;;;;;;;;5034858;28;20123;-70
2022/09/12 04:40:39;;;;;;;36.38;28.70;;;;;;;;;;5036876;28;20128;-70
2022/09/12 04:43:06;;;;;;;34.67;27.55;;;;;;;;;;5037571;28;20057;-70
2022/09/12 04:45:32;;;;;;;38.80;30.20;;;;;;;;;;5039583;28;20055;-70
2022/09/12 04:47:58;;;;;;;38.20;29.48;;;;;;;;;;5036094;28;20919;-70
2022/09/12 04:50:25;;;;;;;38.67;29.45;;;;;;;;;;5039003;28;20124;-70
2022/09/12 04:52:52;;;;;;;38.70;30.25;;;;;;;;;;5040285;28;20088;-70
2022/09/12 04:55:18;;;;;;;35.60;29.38;;;;;;;;;;5037894;28;20405;-68
2022/09/12 04:57:44;;;;;;;36.38;28.88;;;;;;;;;;5034638;28;20057;-70
2022/09/12 05:00:12;;;;;;;39.67;29.95;;;;;;;;;;5030472;28;20037;-70
2022/09/12 05:02:38;;;;;;;37.13;29.25;;;;;;;;;;5033801;28;20183;-70
2022/09/12 05:05:05;;;;;;;36.10;29.02;;;;;;;;;;5032583;28;20053;-70
2022/09/12 05:07:31;;;;;;;38.75;29.60;;;;;;;;;;5033524;28;20049;-70
2022/09/12 05:09:57;;;;;;;35.78;29.23;;;;;;;;;;5051881;28;20048;-70
2022/09/12 05:12:24;;;;;;;37.72;29.25;;;;;;;;;;5035493;28;20045;-70
2022/09/12 05:14:50;;;;;;;41.40;30.60;;;;;;;;;;5035671;28;20040;-70
2022/09/12 05:17:16;;;;;;;37.83;31.00;;;;;;;;;;5033216;28;20125;-70
2022/09/12 05:19:43;;;;;;;38.95;30.05;;;;;;;;;;5041413;28;20045;-70
2022/09/12 05:22:09;;;;;;;37.05;30.75;;;;;;;;;;5037146;28;21565;-70
2022/09/12 05:24:37;;;;;;;39.75;30.48;;;;;;;;;;5039794;28;20428;-69
2022/09/12 05:27:04;;;;;;;38.78;30.52;;;;;;;;;;5039025;28;20060;-69
2022/09/12 05:29:30;;;;;;;39.95;32.00;;;;;;;;;;5038094;28;20064;-69
2022/09/12 05:31:57;;;;;;;37.30;30.77;;;;;;;;;;5036873;28;20485;-69
2022/09/12 05:34:23;;;;;;;37.10;30.90;;;;;;;;;;5035124;28;20397;-69
2022/09/12 05:36:50;;;;;;;45.08;33.25;;;;;;;;;;5035712;28;20151;-69
2022/09/12 05:39:17;;;;;;;39.67;32.45;;;;;;;;;;5028986;28;20048;-68
2022/09/12 05:41:43;;;;;;;39.33;32.35;;;;;;;;;;5034015;28;20477;-69
2022/09/12 05:44:12;;;;;;;40.25;31.90;;;;;;;;;;5036955;28;20511;-69
2022/09/12 05:46:40;;;;;;;42.00;32.33;;;;;;;;;;5045401;28;20045;-69
2022/09/12 05:49:08;;;;;;;42.22;33.17;;;;;;;;;;5047641;28;20044;-69
2022/09/12 05:51:37;;;;;;;41.25;31.98;;;;;;;;;;5049068;28;20044;-69
2022/09/12 05:54:04;;;;;;;41.15;32.88;;;;;;;;;;5044758;28;20053;-69
2022/09/12 05:56:32;;;;;;;42.65;32.70;;;;;;;;;;5045115;28;20131;-68
2022/09/12 05:58:59;;;;;;;38.55;31.42;;;;;;;;;;5047371;28;20056;-66
2022/09/12 06:01:26;;;;;;;44.03;34.40;;;;;;;;;;5050549;28;20096;-69
2022/09/12 06:03:53;;;;;;;39.92;31.63;;;;;;;;;;5036462;28;20044;-69
2022/09/12 06:06:20;;;;;;;40.47;31.85;;;;;;;;;;5036878;28;20041;-69
2022/09/12 06:08:48;;;;;;;40.47;30.85;;;;;;;;;;5048569;28;20064;-69
2022/09/12 06:11:15;;;;;;;40.88;32.40;;;;;;;;;;5051818;28;20048;-69
2022/09/12 06:13:42;;;;;;;42.42;33.17;;;;;;;;;;5043100;28;20423;-70
2022/09/12 06:16:10;;;;;;;40.90;32.17;;;;;;;;;;5049506;28;20127;-69
2022/09/12 06:18:37;;;;;;;41.67;33.30;;;;;;;;;;5050459;28;20139;-69
2022/09/12 06:21:04;;;;;;;41.30;33.15;;;;;;;;;;5054342;28;20043;-69
2022/09/12 06:23:31;;;;;;;43.05;32.53;;;;;;;;;;5050429;28;20087;-69
2022/09/12 06:25:57;;;;;;;43.85;33.58;;;;;;;;;;5052319;28;20415;-66
2022/09/12 06:28:23;;;;;;;42.70;33.25;;;;;;;;;;5049179;28;21731;-69
2022/09/12 06:30:49;;;;;;;44.88;33.33;;;;;;;;;;5057944;28;20076;-69
2022/09/12 06:33:16;;;;;;;40.80;32.17;;;;;;;;;;5049176;28;20057;-69
2022/09/12 06:35:42;;;;;;;43.97;34.33;;;;;;;;;;5048135;28;20044;-70
2022/09/12 06:38:08;;;;;;;40.85;31.92;;;;;;;;;;5046791;28;20036;-70
2022/09/12 06:40:41;;;;;;;44.90;33.17;;;;;;;;;;5042169;28;20071;-68
2022/09/12 06:43:07;;;;;;;44.20;32.80;;;;;;;;;;5042661;28;20049;-69
2022/09/12 06:45:33;;;;;;;43.42;33.60;;;;;;;;;;5046213;28;20403;-69
2022/09/12 06:47:59;;;;;;;44.28;33.92;;;;;;;;;;5041040;28;20611;-69
2022/09/12 06:50:26;;;;;;;47.70;35.38;;;;;;;;;;5056677;28;20135;-69
2022/09/12 06:52:52;;;;;;;46.33;33.70;;;;;;;;;;5060840;28;20040;-69
2022/09/12 06:55:18;;;;;;;42.50;33.50;;;;;;;;;;5055842;28;20044;-69
2022/09/12 06:57:45;;;;;;;47.08;33.72;;;;;;;;;;5057538;28;20413;-69
2022/09/12 07:00:11;;;;;;;47.78;34.05;;;;;;;;;;5061357;28;20175;-70
2022/09/12 07:02:37;;;;;;;43.42;33.63;;;;;;;;;;5056924;28;20170;-69
2022/09/12 07:05:04;;;;;;;46.92;35.25;;;;;;;;;;5053612;28;20052;-69
2022/09/12 07:07:33;;;;;;;44.30;33.70;;;;;;;;;;5060226;28;20053;-69
2022/09/12 07:09:59;;;;;;;46.50;34.25;;;;;;;;;;5050875;28;20056;-69
2022/09/12 07:12:27;;;;;;;46.67;35.97;;;;;;;;;;5058214;28;20044;-69
2022/09/12 07:14:53;;;;;;;48.90;35.20;;;;;;;;;;5052116;28;20108;-69
2022/09/12 07:17:19;;;;;;;49.97;37.53;;;;;;;;;;5058838;28;20544;-70
2022/09/12 07:19:46;;;;;;;50.25;36.20;;;;;;;;;;5055827;28;20056;-69
2022/09/12 07:22:12;;;;;;;52.78;38.33;;;;;;;;;;5059520;28;20048;-69
2022/09/12 07:24:40;;;;;;;54.00;38.00;;;;;;;;;;5061426;28;20045;-69
2022/09/12 07:27:06;;;;;;;55.85;39.92;;;;;;;;;;5056766;28;20237;-69
2022/09/12 07:29:32;;;;;;;55.25;38.63;;;;;;;;;;5059934;28;20458;-70
2022/09/12 07:32:00;;;;;;;56.45;39.38;;;;;;;;;;5056760;28;20178;-69
2022/09/12 07:34:26;;;;;;;58.72;39.63;;;;;;;;;;5058418;28;20047;-71
2022/09/12 07:36:52;;;;;;;56.40;41.88;;;;;;;;;;5057336;28;20129;-73
2022/09/12 07:39:19;;;;;;;63.00;42.28;;;;;;;;;;5058362;28;20162;-73
2022/09/12 07:41:45;;;;;;;65.75;43.60;;;;;;;;;;5052837;28;20055;-73
2022/09/12 07:44:11;;;;;;;62.42;42.20;;;;;;;;;;5053464;28;20188;-72
2022/09/12 07:46:38;;;;;;;63.60;43.67;;;;;;;;;;5048043;28;20112;-73
2022/09/12 07:49:05;;;;;;;60.63;43.58;;;;;;;;;;5050131;28;20077;-72
2022/09/12 07:51:31;;;;;;;64.63;44.88;;;;;;;;;;5047966;28;20479;-73
2022/09/12 07:53:57;;;;;;;71.05;46.67;;;;;;;;;;5037749;28;20052;-73
2022/09/12 07:56:24;;;;;;;67.10;46.85;;;;;;;;;;5043117;28;20109;-76
2022/09/12 07:58:50;;;;;;;70.35;49.05;;;;;;;;;;5052635;28;20056;-77
2022/09/12 08:01:22;;;;;;;71.68;50.05;;;;;;;;;;5045845;28;20128;-77
2022/09/12 08:03:49;;;;;;;76.38;50.70;;;;;;;;;;5045242;28;20095;-76
2022/09/12 08:06:20;;;;;;;75.55;47.28;;;;;;;;;;5049756;28;20045;-77
2022/09/12 08:08:46;;;;;;;67.82;46.47;;;;;;;;;;5046887;28;20045;-75
2022/09/12 08:11:14;;;;;;;69.13;46.70;;;;;;;;;;5052864;28;20427;-76
2022/09/12 08:13:41;;;;;;;74.57;49.50;;;;;;;;;;5043040;28;20159;-72
2022/09/12 08:16:08;;;;;;;67.30;47.95;;;;;;;;;;5045675;28;20052;-72
2022/09/12 08:18:35;;;;;;;59.00;44.58;;;;;;;;;;5046375;28;20040;-72
2022/09/12 08:21:02;;;;;;;68.50;48.30;;;;;;;;;;5044870;28;20048;-72
2022/09/12 08:23:29;;;;;;;61.47;45.78;;;;;;;;;;5049404;28;20037;-72
2022/09/12 08:25:56;;;;;;;65.70;45.80;;;;;;;;;;5045606;28;20357;-72
2022/09/12 08:28:22;;;;;;;70.07;48.90;;;;;;;;;;5046546;28;20503;-72
2022/09/12 08:30:48;;;;;;;65.05;47.78;;;;;;;;;;5051724;28;20055;-72
2022/09/12 08:33:15;;;;;;;64.60;49.47;;;;;;;;;;5042460;28;20560;-72
2022/09/12 08:35:41;;;;;;;70.18;49.13;;;;;;;;;;5049122;28;20056;-72
2022/09/12 08:38:07;;;;;;;70.25;49.63;;;;;;;;;;5042185;28;20060;-72
2022/09/12 08:40:42;;;;;;;66.25;49.95;;;;;;;;;;5046135;28;20037;-73
2022/09/12 08:43:22;;;;;;;76.82;49.45;;;;;;;;;;5053878;28;20054;-72
2022/09/12 08:45:54;;;;;;;68.32;47.97;;;;;;;;;;5038306;28;20049;-72
2022/09/12 08:48:20;;;;;;;76.68;50.00;;;;;;;;;;5056098;28;20045;-72
2022/09/12 08:50:46;;;;;;;75.45;49.28;;;;;;;;;;5057717;28;20404;-73
2022/09/12 08:53:15;;;;;;;70.57;50.20;;;;;;;;;;5043430;28;20041;-72
2022/09/12 08:55:41;;;;;;;70.68;50.03;;;;;;;;;;5052753;28;20051;-72
2022/09/12 08:58:15;;;;;;;71.10;50.03;;;;;;;;;;5045303;28;20049;-72
2022/09/12 09:00:48;;;;;;;70.75;51.50;;;;;;;;;;5055469;28;20167;-72
2022/09/12 09:03:33;;;;;;;71.65;50.22;;;;;;;;;;5051987;28;20056;-72
2022/09/12 09:06:07;;;;;;;72.93;51.78;;;;;;;;;;5039762;28;20491;-73
2022/09/12 09:08:33;;;;;;;;;;;;;;;;;;5050773;28;20415;-72
2022/09/12 09:11:00;;;;;;;73.38;51.13;;;;;;;;;;5050788;28;20022;-72
2022/09/12 09:16:20;;;;;;;65.85;47.00;;;;;;;;;;5057815;28;20264;-72
2022/09/12 09:18:47;;;;;;;62.67;44.70;;;;;;;;;;5074887;28;20147;-72
2022/09/12 09:21:21;;;;;;;65.65;44.92;;;;;;;;;;5055669;28;20041;-72
2022/09/12 09:23:47;;;;;;;;;;;;;;;;;;5055946;28;20418;-73
2022/09/12 09:26:14;;;;;;;67.47;45.35;;;;;;;;;;5055049;28;19920;-72
2022/09/12 09:28:46;;;;;;;59.38;42.03;;;;;;;;;;5053621;28;20040;-72
2022/09/12 09:31:15;;;;;;;60.38;40.42;;;;;;;;;;5037412;28;20044;-72
2022/09/12 09:33:41;;;;;;;61.97;42.47;;;;;;;;;;5055841;28;20378;-73
2022/09/12 09:36:08;;;;;;;57.17;40.25;;;;;;;;;;5046338;28;20568;-72
2022/09/12 09:38:41;;;;;;;56.90;41.05;;;;;;;;;;5053367;28;20218;-72
2022/09/12 09:41:26;;;;;;;51.08;37.17;;;;;;;;;;5056436;28;20157;-72
2022/09/12 09:43:52;;;;;;;51.95;38.83;;;;;;;;;;5056375;28;20048;-72
2022/09/12 09:46:19;;;;;;;51.15;37.55;;;;;;;;;;5055737;28;20043;-72
2022/09/12 09:48:48;;;;;;;50.28;36.45;;;;;;;;;;5053360;28;20101;-73
2022/09/12 09:51:16;;;;;;;47.25;32.13;;;;;;;;;;5073871;28;20127;-68
2022/09/12 09:53:47;;;;;;;46.85;33.72;;;;;;;;;;5053171;28;20213;-70
2022/09/12 09:56:26;;;;;;;45.45;32.17;;;;;;;;;;5055949;28;20076;-72
2022/09/12 09:58:53;;;;;;;39.63;29.77;;;;;;;;;;5062323;28;20544;-73
2022/09/12 10:01:19;;;;;;;38.92;26.70;;;;;;;;;;5044990;28;20435;-72
2022/09/12 10:03:53;;;;;;;32.40;23.55;;;;;;;;;;5053636;28;20087;-73
2022/09/12 10:06:20;;;;;;;;;;;;;;;;;;5054962;28;20041;-72
2022/09/12 10:08:47;;;;;;;28.67;19.90;;;;;;;;;;5056773;28;20064;-72
2022/09/12 10:11:16;;;;;;;33.72;23.83;;;;;;;;;;5057221;28;21736;-73
2022/09/12 10:13:53;;;;;;;35.70;23.85;;;;;;;;;;5056853;28;20404;-72
2022/09/12 10:16:21;;;;;;;31.45;22.30;;;;;;;;;;5039164;28;20044;-72
2022/09/12 10:18:49;;;;;;;26.55;20.08;;;;;;;;;;5056487;28;20120;-72
2022/09/12 10:21:28;;;;;;;25.90;18.52;;;;;;;;;;5060285;28;20053;-73
2022/09/12 10:24:04;;;;;;;31.13;20.27;;;;;;;;;;5060888;28;20528;-72
2022/09/12 10:26:33;;;;;;;18.45;13.80;;;;;;;;;;5064012;28;20124;-72
2022/09/12 10:29:02;;;;;;;20.92;15.02;;;;;;;;;;5060105;28;20131;-72
2022/09/12 10:31:34;;;;;;;24.48;14.77;;;;;;;;;;5063229;28;20488;-73
2022/09/12 10:34:00;;;;;;;22.63;16.95;;;;;;;;;;5091532;28;20045;-73
2022/09/12 10:36:35;;;;;;;21.15;16.05;;;;;;;;;;5062258;28;20044;-73
2022/09/12 10:39:02;;;;;;;24.42;18.50;;;;;;;;;;5058904;28;20041;-73
2022/09/12 10:41:35;;;;;;;20.67;15.93;;;;;;;;;;5060345;28;20108;-73
2022/09/12 10:44:08;;;;;;;22.50;16.73;;;;;;;;;;5027637;28;20154;-73
2022/09/12 10:46:34;;;;;;;;;;;;;;;;;;5053637;28;20053;-73
2022/09/12 10:49:20;;;;;;;24.73;17.13;;;;;;;;;;5055265;28;19930;-73
2022/09/12 10:51:47;;;;;;;22.33;16.25;;;;;;;;;;5047887;28;20099;-73
2022/09/12 10:54:15;;;;;;;23.50;17.27;;;;;;;;;;5055239;28;20082;-73
2022/09/12 10:56:46;;;;;;;27.13;18.20;;;;;;;;;;5052220;28;20445;-73
2022/09/12 10:59:24;;;;;;;25.63;17.45;;;;;;;;;;5048154;28;20047;-73
2022/09/12 11:01:56;;;;;;;27.20;18.08;;;;;;;;;;5048730;28;20040;-74
2022/09/12 11:04:23;;;;;;;22.40;17.87;;;;;;;;;;5046494;28;20044;-73
2022/09/12 11:07:08;;;;;;;21.00;15.23;;;;;;;;;;5031362;28;20115;-73
2022/09/12 11:09:42;;;;;;;26.88;16.77;;;;;;;;;;5048822;28;20045;-73
2022/09/12 11:12:15;;;;;;;24.23;17.60;;;;;;;;;;5049436;28;20053;-73
2022/09/12 11:14:55;;;;;;;24.10;16.52;;;;;;;;;;5040746;28;20610;-72
2022/09/12 11:17:29;;;;;;;21.25;15.25;;;;;;;;;;5040162;28;20045;-71
2022/09/12 11:20:02;;;;;;;19.30;15.55;;;;;;;;;;5044906;28;20139;-73
2022/09/12 11:22:35;;;;;;;21.73;17.33;;;;;;;;;;5046821;28;20350;-73
2022/09/12 11:25:08;;;;;;;26.90;18.30;;;;;;;;;;5057622;28;22073;-73
2022/09/12 11:27:46;;;;;;;21.35;16.35;;;;;;;;;;5059436;28;20052;-73
2022/09/12 11:30:14;;;;;;;23.05;15.65;;;;;;;;;;5057279;28;20045;-72
2022/09/12 11:32:40;;;;;;;24.63;14.70;;;;;;;;;;5043416;28;20048;-69
2022/09/12 11:35:06;;;;;;;21.45;14.68;;;;;;;;;;5047077;28;20548;-69
2022/09/12 11:37:44;;;;;;;21.85;15.95;;;;;;;;;;5042975;28;20053;-69
2022/09/12 11:40:19;;;;;;;23.60;16.33;;;;;;;;;;5051712;28;20049;-69
2022/09/12 11:42:46;;;;;;;22.52;17.20;;;;;;;;;;5056859;28;20056;-69
2022/09/12 11:45:16;;;;;;;21.08;16.85;;;;;;;;;;5042910;28;20039;-69
2022/09/12 11:47:44;;;;;;;23.15;15.98;;;;;;;;;;5044396;28;20037;-69
2022/09/12 11:50:16;;;;;;;27.70;17.95;;;;;;;;;;5045061;28;20038;-69
2022/09/12 11:52:42;;;;;;;23.45;16.92;;;;;;;;;;5043741;28;20040;-69
2022/09/12 11:55:18;;;;;;;19.10;14.20;;;;;;;;;;5044243;28;20673;-69
2022/09/12 11:57:51;;;;;;;19.67;15.70;;;;;;;;;;5027431;28;20481;-68
2022/09/12 12:00:19;;;;;;;15.50;12.07;;;;;;;;;;5048900;28;20067;-67
2022/09/12 12:02:45;;;;;;;12.68;8.88;;;;;;;;;;5050343;28;20190;-68
2022/09/12 12:05:19;;;;;;;8.80;6.07;;;;;;;;;;5044859;28;20041;-66
2022/09/12 12:07:53;;;;;;;10.32;6.80;;;;;;;;;;5035577;28;20428;-67
2022/09/12 12:10:23;;;;;;;9.63;6.10;;;;;;;;;;5054512;28;20143;-67
2022/09/12 12:12:51;;;;;;;12.43;6.95;;;;;;;;;;5038009;28;20466;-69
2022/09/12 12:15:17;;;;;;;9.25;6.82;;;;;;;;;;5043631;28;20333;-69
2022/09/12 12:17:44;;;;;;;10.23;6.55;;;;;;;;;;5033766;28;20053;-69
2022/09/12 12:20:16;;;;;;;7.55;5.85;;;;;;;;;;5055386;28;20099;-69
2022/09/12 12:22:55;;;;;;;7.30;4.63;;;;;;;;;;5055758;28;20517;-69
2022/09/12 12:25:23;;;;;;;8.40;4.95;;;;;;;;;;5048222;28;20427;-69
2022/09/12 12:27:58;;;;;;;6.80;5.45;;;;;;;;;;5050663;28;20041;-69
2022/09/12 12:30:29;;;;;;;6.13;3.90;;;;;;;;;;5035281;28;20134;-70
2022/09/12 12:32:59;;;;;;;5.18;3.28;;;;;;;;;;5044790;28;20395;-69
2022/09/12 12:35:37;;;;;;;5.70;3.83;;;;;;;;;;5041205;28;20049;-69
2022/09/12 12:38:05;;;;;;;7.93;4.40;;;;;;;;;;5050154;28;20045;-69
2022/09/12 12:40:32;;;;;;;6.05;3.83;;;;;;;;;;5047350;28;20040;-69
2022/09/12 12:43:00;;;;;;;7.35;3.88;;;;;;;;;;5050157;28;20072;-69
2022/09/12 12:45:26;;;;;;;8.02;4.78;;;;;;;;;;5030807;28;20393;-69
2022/09/12 12:47:55;;;;;;;7.13;5.15;;;;;;;;;;5038055;28;20041;-70
2022/09/12 12:50:23;;;;;;;10.23;5.68;;;;;;;;;;5038160;28;20033;-70
2022/09/12 12:52:52;;;;;;;7.93;4.85;;;;;;;;;;5044500;28;20064;-70
2022/09/12 12:55:25;;;;;;;7.30;5.28;;;;;;;;;;5069275;28;20072;-69
2022/09/12 12:57:52;;;;;;;6.30;3.90;;;;;;;;;;5052531;28;20040;-69
2022/09/12 13:00:20;;;;;;;8.00;3.67;;;;;;;;;;5047374;28;20037;-69
2022/09/12 13:02:57;;;;;;;5.72;3.70;;;;;;;;;;5049514;28;20040;-69
2022/09/12 13:05:25;;;;;;;6.40;3.22;;;;;;;;;;5046978;28;20224;-69
2022/09/12 13:07:54;;;;;;;4.40;3.13;;;;;;;;;;5040677;28;20090;-69
2022/09/12 13:10:23;;;;;;;5.75;3.35;;;;;;;;;;5043880;28;20110;-69
2022/09/12 13:12:50;;;;;;;5.72;4.00;;;;;;;;;;5047540;28;20474;-69
2022/09/12 13:15:29;;;;;;;5.57;3.03;;;;;;;;;;5036379;28;20049;-69
2022/09/12 13:17:58;;;;;;;6.78;3.45;;;;;;;;;;5055574;28;20086;-69
2022/09/12 13:20:28;;;;;;;5.50;3.47;;;;;;;;;;5052765;28;20044;-69
2022/09/12 13:22:54;;;;;;;6.57;3.33;;;;;;;;;;5044841;28;20093;-69
2022/09/12 13:25:29;;;;;;;6.65;3.92;;;;;;;;;;5038881;28;20072;-69
2022/09/12 13:27:56;;;;;;;7.43;4.55;;;;;;;;;;5035647;28;20065;-69
2022/09/12 13:30:22;;;;;;;6.18;3.70;;;;;;;;;;5035334;28;20063;-69
2022/09/12 13:32:49;;;;;;;6.00;3.42;;;;;;;;;;5043675;28;20051;-69
2022/09/12 13:35:26;;;;;;;6.45;3.83;;;;;;;;;;5044471;28;20053;-69
2022/09/12 13:37:52;;;;;;;7.13;4.03;;;;;;;;;;5044382;28;20057;-69
2022/09/12 13:40:19;;;;;;;7.68;4.80;;;;;;;;;;5037616;28;20051;-69
2022/09/12 13:42:47;;;;;;;10.93;4.80;;;;;;;;;;5041646;28;20055;-69
2022/09/12 13:45:19;;;;;;;6.25;4.38;;;;;;;;;;5049783;28;20052;-69
2022/09/12 13:47:46;;;;;;;7.50;4.60;;;;;;;;;;5053271;28;20149;-69
2022/09/12 13:50:16;;;;;;;8.00;4.28;;;;;;;;;;5056045;28;20040;-69
2022/09/12 13:52:45;;;;;;;5.80;3.95;;;;;;;;;;5058253;28;20306;-69
2022/09/12 13:55:23;;;;;;;8.38;4.70;;;;;;;;;;5055141;28;20046;-69
2022/09/12 13:57:55;;;;;;;6.57;4.97;;;;;;;;;;5052775;28;20065;-69
2022/09/12 14:00:22;;;;;;;7.65;5.20;;;;;;;;;;5043353;28;20049;-69
2022/09/12 14:02:49;;;;;;;11.57;5.20;;;;;;;;;;5044323;28;20084;-69
2022/09/12 14:05:20;;;;;;;7.97;5.53;;;;;;;;;;5043490;28;20146;-69
2022/09/12 14:07:53;;;;;;;13.85;6.55;;;;;;;;;;5047739;28;20450;-69
2022/09/12 14:10:21;;;;;;;7.88;5.90;;;;;;;;;;5054292;28;20404;-69
2022/09/12 14:12:49;;;;;;;8.57;6.93;;;;;;;;;;5051237;28;20131;-68
2022/09/12 14:15:18;;;;;;;10.82;7.75;;;;;;;;;;5035652;28;20523;-67
2022/09/12 14:17:50;;;;;;;12.52;7.72;;;;;;;;;;5051711;28;20387;-69
2022/09/12 14:20:18;;;;;;;9.70;6.97;;;;;;;;;;5049171;28;20037;-68
2022/09/12 14:22:45;;;;;;;12.10;8.20;;;;;;;;;;5055710;28;20306;-68
2022/09/12 14:25:15;;;;;;;12.35;8.82;;;;;;;;;;5040031;28;20041;-68
2022/09/12 14:27:44;;;;;;;13.90;10.02;;;;;;;;;;5047043;28;20048;-68
2022/09/12 14:30:19;;;;;;;13.60;9.10;;;;;;;;;;5079421;28;20045;-68
2022/09/12 14:33:04;;;;;;;15.02;10.05;;;;;;;;;;5037747;28;20037;-68
2022/09/12 14:35:32;;;;;;;13.20;10.93;;;;;;;;;;5042167;28;20095;-68
2022/09/12 14:38:06;;;;;;;13.85;11.77;;;;;;;;;;5062931;28;20041;-69